sensor_id;sensor_type;location;lat;lon;timestamp;P1;durP1;ratioP1;P2;durP2;ratioP2
61385;SDS011;47256;18.904;-99.054;2023-09-19T00:00:47;24.45;;;17.52;;
61385;SDS011;47256;18.904;-99.054;2023-09-19T00:03:14;22.80;;;17.13;;
61385;SDS011;47256;18.904;-99.054;2023-09-19T00:05:43;20.83;;;17.75;;
61385;SDS011;47256;18.904;-99.054;2023-09-19T00:08:10;27.50;;;18.75;;
61385;SDS011;47256;18.904;-99.054;2023-09-19T00:10:39;22.23;;;17.00;;
61385;SDS011;47256;18.904;-99.054;2023-09-19T00:13:08;31.17;;;18.08;;
61385;SDS011;47256;18.904;-99.054;2023-09-19T00:15:40;24.05;;;17.73;;
61385;SDS011;47256;18.904;-99.054;2023-09-19T00:18:08;25.15;;;17.27;;
61385;SDS011;47256;18.904;-99.054;2023-09-19T00:20:36;22.50;;;16.35;;
61385;SDS011;47256;18.904;-99.054;2023-09-19T00:23:04;21.48;;;15.73;;
61385;SDS011;47256;18.904;-99.054;2023-09-19T00:25:31;28.17;;;18.20;;
61385;SDS011;47256;18.904;-99.054;2023-09-19T00:28:01;24.40;;;17.25;;
61385;SDS011;47256;18.904;-99.054;2023-09-19T00:30:28;20.17;;;16.45;;
61385;SDS011;47256;18.904;-99.054;2023-09-19T00:32:55;17.58;;;15.48;;
61385;SDS011;47256;18.904;-99.054;2023-09-19T00:35:23;21.67;;;16.48;;
61385;SDS011;47256;18.904;-99.054;2023-09-19T00:37:50;23.13;;;17.23;;
61385;SDS011;47256;18.904;-99.054;2023-09-19T00:40:18;24.20;;;16.67;;
61385;SDS011;47256;18.904;-99.054;2023-09-19T00:42:48;35.38;;;25.75;;
61385;SDS011;47256;18.904;-99.054;2023-09-19T00:45:17;74.50;;;47.97;;
61385;SDS011;47256;18.904;-99.054;2023-09-19T00:47:47;132.85;;;83.20;;
61385;SDS011;47256;18.904;-99.054;2023-09-19T00:50:19;111.78;;;71.25;;
61385;SDS011;47256;18.904;-99.054;2023-09-19T00:52:53;59.27;;;35.97;;
61385;SDS011;47256;18.904;-99.054;2023-09-19T00:55:25;45.42;;;30.35;;
61385;SDS011;47256;18.904;-99.054;2023-09-19T00:57:55;33.08;;;22.42;;
61385;SDS011;47256;18.904;-99.054;2023-09-19T01:00:24;78.80;;;47.67;;
61385;SDS011;47256;18.904;-99.054;2023-09-19T01:02:51;61.58;;;42.13;;
61385;SDS011;47256;18.904;-99.054;2023-09-19T01:05:21;41.75;;;28.23;;
61385;SDS011;47256;18.904;-99.054;2023-09-19T01:07:50;61.75;;;38.08;;
61385;SDS011;47256;18.904;-99.054;2023-09-19T01:10:19;70.60;;;40.38;;
61385;SDS011;47256;18.904;-99.054;2023-09-19T01:18:35;64.30;;;37.97;;
61385;SDS011;47256;18.904;-99.054;2023-09-19T01:29:48;43.45;;;26.58;;
61385;SDS011;47256;18.904;-99.054;2023-09-19T01:32:19;56.33;;;33.20;;
61385;SDS011;47256;18.904;-99.054;2023-09-19T01:34:49;42.03;;;27.75;;
61385;SDS011;47256;18.904;-99.054;2023-09-19T01:37:24;36.15;;;24.33;;
61385;SDS011;47256;18.904;-99.054;2023-09-19T01:39:52;37.67;;;24.25;;
61385;SDS011;47256;18.904;-99.054;2023-09-19T01:48:43;25.48;;;20.15;;
61385;SDS011;47256;18.904;-99.054;2023-09-19T01:51:40;34.13;;;21.40;;
61385;SDS011;47256;18.904;-99.054;2023-09-19T01:54:26;28.98;;;21.75;;
61385;SDS011;47256;18.904;-99.054;2023-09-19T01:59:47;25.83;;;19.75;;
61385;SDS011;47256;18.904;-99.054;2023-09-19T02:02:20;30.58;;;19.52;;
61385;SDS011;47256;18.904;-99.054;2023-09-19T02:04:49;30.02;;;20.83;;
61385;SDS011;47256;18.904;-99.054;2023-09-19T02:07:17;30.63;;;17.25;;
61385;SDS011;47256;18.904;-99.054;2023-09-19T02:09:44;28.50;;;20.17;;
61385;SDS011;47256;18.904;-99.054;2023-09-19T02:12:13;27.05;;;21.63;;
61385;SDS011;47256;18.904;-99.054;2023-09-19T02:14:41;29.88;;;21.08;;
61385;SDS011;47256;18.904;-99.054;2023-09-19T02:17:08;31.98;;;22.35;;
61385;SDS011;47256;18.904;-99.054;2023-09-19T02:19:37;29.05;;;20.80;;
61385;SDS011;47256;18.904;-99.054;2023-09-19T02:22:05;27.50;;;21.70;;
61385;SDS011;47256;18.904;-99.054;2023-09-19T02:24:36;32.70;;;23.02;;
61385;SDS011;47256;18.904;-99.054;2023-09-19T02:27:04;30.23;;;21.75;;
61385;SDS011;47256;18.904;-99.054;2023-09-19T02:29:31;31.23;;;21.27;;
61385;SDS011;47256;18.904;-99.054;2023-09-19T02:32:00;30.92;;;22.58;;
61385;SDS011;47256;18.904;-99.054;2023-09-19T02:34:27;33.72;;;23.83;;
61385;SDS011;47256;18.904;-99.054;2023-09-19T02:36:55;31.25;;;22.65;;
61385;SDS011;47256;18.904;-99.054;2023-09-19T02:39:22;42.47;;;25.42;;
61385;SDS011;47256;18.904;-99.054;2023-09-19T02:41:49;46.63;;;28.45;;
61385;SDS011;47256;18.904;-99.054;2023-09-19T02:44:16;96.80;;;43.78;;
61385;SDS011;47256;18.904;-99.054;2023-09-19T02:46:46;49.00;;;29.55;;
61385;SDS011;47256;18.904;-99.054;2023-09-19T02:49:13;66.60;;;32.95;;
61385;SDS011;47256;18.904;-99.054;2023-09-19T02:51:42;36.08;;;25.77;;
61385;SDS011;47256;18.904;-99.054;2023-09-19T02:54:09;37.17;;;23.77;;
61385;SDS011;47256;18.904;-99.054;2023-09-19T02:56:37;33.00;;;23.15;;
61385;SDS011;47256;18.904;-99.054;2023-09-19T02:59:04;39.17;;;24.42;;
61385;SDS011;47256;18.904;-99.054;2023-09-19T03:01:32;32.78;;;21.75;;
61385;SDS011;47256;18.904;-99.054;2023-09-19T03:04:00;30.80;;;21.58;;
61385;SDS011;47256;18.904;-99.054;2023-09-19T03:06:29;26.20;;;19.70;;
61385;SDS011;47256;18.904;-99.054;2023-09-19T03:08:57;26.88;;;18.13;;
61385;SDS011;47256;18.904;-99.054;2023-09-19T03:11:26;31.83;;;19.35;;
61385;SDS011;47256;18.904;-99.054;2023-09-19T03:13:56;28.25;;;19.27;;
61385;SDS011;47256;18.904;-99.054;2023-09-19T03:16:24;27.67;;;20.90;;
61385;SDS011;47256;18.904;-99.054;2023-09-19T03:18:54;29.73;;;20.88;;
61385;SDS011;47256;18.904;-99.054;2023-09-19T03:21:23;29.05;;;20.52;;
61385;SDS011;47256;18.904;-99.054;2023-09-19T03:23:52;31.00;;;21.63;;
61385;SDS011;47256;18.904;-99.054;2023-09-19T03:26:19;21.70;;;16.13;;
61385;SDS011;47256;18.904;-99.054;2023-09-19T03:28:47;22.02;;;12.93;;
61385;SDS011;47256;18.904;-99.054;2023-09-19T03:31:14;21.20;;;13.30;;
61385;SDS011;47256;18.904;-99.054;2023-09-19T03:33:41;81.07;;;28.83;;
61385;SDS011;47256;18.904;-99.054;2023-09-19T03:36:08;49.72;;;19.98;;
61385;SDS011;47256;18.904;-99.054;2023-09-19T03:38:36;25.23;;;12.43;;
61385;SDS011;47256;18.904;-99.054;2023-09-19T03:41:03;12.43;;;8.32;;
61385;SDS011;47256;18.904;-99.054;2023-09-19T03:43:34;9.60;;;6.47;;
61385;SDS011;47256;18.904;-99.054;2023-09-19T03:46:03;13.23;;;7.05;;
61385;SDS011;47256;18.904;-99.054;2023-09-19T03:48:32;10.77;;;6.05;;
61385;SDS011;47256;18.904;-99.054;2023-09-19T03:50:59;8.55;;;4.72;;
61385;SDS011;47256;18.904;-99.054;2023-09-19T03:53:26;9.23;;;5.15;;
61385;SDS011;47256;18.904;-99.054;2023-09-19T03:55:53;11.65;;;4.53;;
61385;SDS011;47256;18.904;-99.054;2023-09-19T03:58:21;31.88;;;9.02;;
61385;SDS011;47256;18.904;-99.054;2023-09-19T04:00:49;7.40;;;4.00;;
61385;SDS011;47256;18.904;-99.054;2023-09-19T04:03:17;6.38;;;4.15;;
61385;SDS011;47256;18.904;-99.054;2023-09-19T04:05:47;6.75;;;3.90;;
61385;SDS011;47256;18.904;-99.054;2023-09-19T04:08:15;6.80;;;3.88;;
61385;SDS011;47256;18.904;-99.054;2023-09-19T04:10:42;6.00;;;3.88;;
61385;SDS011;47256;18.904;-99.054;2023-09-19T04:13:11;6.43;;;3.85;;
61385;SDS011;47256;18.904;-99.054;2023-09-19T04:15:38;14.25;;;5.00;;
61385;SDS011;47256;18.904;-99.054;2023-09-19T04:18:06;4.63;;;3.38;;
61385;SDS011;47256;18.904;-99.054;2023-09-19T04:20:33;5.53;;;3.40;;
61385;SDS011;47256;18.904;-99.054;2023-09-19T04:23:00;5.53;;;2.85;;
61385;SDS011;47256;18.904;-99.054;2023-09-19T04:25:28;4.03;;;2.90;;
61385;SDS011;47256;18.904;-99.054;2023-09-19T04:27:55;38.97;;;15.77;;
61385;SDS011;47256;18.904;-99.054;2023-09-19T04:30:22;12.45;;;6.90;;
61385;SDS011;47256;18.904;-99.054;2023-09-19T04:32:50;5.25;;;3.60;;
61385;SDS011;47256;18.904;-99.054;2023-09-19T04:35:17;14.50;;;4.47;;
61385;SDS011;47256;18.904;-99.054;2023-09-19T04:37:45;24.23;;;9.30;;
61385;SDS011;47256;18.904;-99.054;2023-09-19T04:40:14;23.85;;;10.18;;
61385;SDS011;47256;18.904;-99.054;2023-09-19T04:42:43;20.75;;;9.20;;
61385;SDS011;47256;18.904;-99.054;2023-09-19T04:45:11;13.80;;;6.45;;
61385;SDS011;47256;18.904;-99.054;2023-09-19T04:47:40;19.42;;;7.85;;
61385;SDS011;47256;18.904;-99.054;2023-09-19T04:50:09;16.05;;;7.57;;
61385;SDS011;47256;18.904;-99.054;2023-09-19T04:52:43;11.48;;;5.65;;
61385;SDS011;47256;18.904;-99.054;2023-09-19T04:55:14;13.63;;;6.30;;
61385;SDS011;47256;18.904;-99.054;2023-09-19T04:57:49;10.55;;;4.85;;
61385;SDS011;47256;18.904;-99.054;2023-09-19T05:00:19;12.40;;;5.32;;
61385;SDS011;47256;18.904;-99.054;2023-09-19T05:02:50;11.10;;;5.60;;
61385;SDS011;47256;18.904;-99.054;2023-09-19T05:05:19;7.45;;;4.53;;
61385;SDS011;47256;18.904;-99.054;2023-09-19T05:07:47;11.48;;;5.22;;
61385;SDS011;47256;18.904;-99.054;2023-09-19T05:10:14;8.63;;;4.70;;
61385;SDS011;47256;18.904;-99.054;2023-09-19T05:12:44;8.60;;;5.13;;
61385;SDS011;47256;18.904;-99.054;2023-09-19T05:15:14;11.15;;;3.92;;
61385;SDS011;47256;18.904;-99.054;2023-09-19T05:17:51;7.60;;;3.90;;
61385;SDS011;47256;18.904;-99.054;2023-09-19T05:20:21;10.02;;;4.78;;
61385;SDS011;47256;18.904;-99.054;2023-09-19T05:25:31;7.00;;;3.40;;
61385;SDS011;47256;18.904;-99.054;2023-09-19T05:27:58;8.40;;;3.72;;
61385;SDS011;47256;18.904;-99.054;2023-09-19T05:30:29;12.25;;;6.95;;
61385;SDS011;47256;18.904;-99.054;2023-09-19T05:32:56;11.07;;;5.97;;
61385;SDS011;47256;18.904;-99.054;2023-09-19T05:35:24;11.88;;;5.68;;
61385;SDS011;47256;18.904;-99.054;2023-09-19T05:37:52;8.63;;;5.63;;
61385;SDS011;47256;18.904;-99.054;2023-09-19T05:40:21;5.72;;;3.85;;
61385;SDS011;47256;18.904;-99.054;2023-09-19T05:42:47;11.30;;;3.80;;
61385;SDS011;47256;18.904;-99.054;2023-09-19T05:45:16;7.90;;;4.00;;
61385;SDS011;47256;18.904;-99.054;2023-09-19T05:47:51;10.07;;;3.92;;
61385;SDS011;47256;18.904;-99.054;2023-09-19T05:50:21;14.65;;;4.78;;
61385;SDS011;47256;18.904;-99.054;2023-09-19T05:52:51;11.70;;;5.00;;
61385;SDS011;47256;18.904;-99.054;2023-09-19T05:55:20;12.30;;;4.55;;
61385;SDS011;47256;18.904;-99.054;2023-09-19T05:57:51;6.72;;;3.92;;
61385;SDS011;47256;18.904;-99.054;2023-09-19T06:00:20;7.75;;;3.47;;
61385;SDS011;47256;18.904;-99.054;2023-09-19T06:02:53;8.43;;;4.60;;
61385;SDS011;47256;18.904;-99.054;2023-09-19T06:05:26;9.80;;;5.18;;
61385;SDS011;47256;18.904;-99.054;2023-09-19T06:07:54;8.45;;;4.70;;
61385;SDS011;47256;18.904;-99.054;2023-09-19T06:10:21;9.68;;;5.20;;
61385;SDS011;47256;18.904;-99.054;2023-09-19T06:12:48;6.78;;;4.60;;
61385;SDS011;47256;18.904;-99.054;2023-09-19T06:15:15;10.68;;;5.72;;
61385;SDS011;47256;18.904;-99.054;2023-09-19T06:17:49;13.43;;;5.10;;
61385;SDS011;47256;18.904;-99.054;2023-09-19T06:20:26;6.93;;;3.67;;
61385;SDS011;47256;18.904;-99.054;2023-09-19T06:22:53;5.85;;;4.07;;
61385;SDS011;47256;18.904;-99.054;2023-09-19T06:25:21;9.60;;;3.47;;
61385;SDS011;47256;18.904;-99.054;2023-09-19T06:27:48;6.70;;;3.95;;
61385;SDS011;47256;18.904;-99.054;2023-09-19T06:30:18;6.00;;;3.97;;
61385;SDS011;47256;18.904;-99.054;2023-09-19T06:32:45;5.68;;;3.70;;
61385;SDS011;47256;18.904;-99.054;2023-09-19T06:35:13;8.25;;;4.63;;
61385;SDS011;47256;18.904;-99.054;2023-09-19T06:37:41;7.05;;;5.07;;
61385;SDS011;47256;18.904;-99.054;2023-09-19T06:40:13;6.25;;;4.72;;
61385;SDS011;47256;18.904;-99.054;2023-09-19T06:42:41;9.32;;;4.65;;
61385;SDS011;47256;18.904;-99.054;2023-09-19T06:45:10;6.85;;;4.70;;
61385;SDS011;47256;18.904;-99.054;2023-09-19T06:47:44;9.82;;;5.50;;
61385;SDS011;47256;18.904;-99.054;2023-09-19T06:50:15;11.63;;;5.30;;
61385;SDS011;47256;18.904;-99.054;2023-09-19T06:52:49;12.32;;;6.25;;
61385;SDS011;47256;18.904;-99.054;2023-09-19T06:55:18;21.80;;;7.05;;
61385;SDS011;47256;18.904;-99.054;2023-09-19T06:57:46;13.30;;;6.68;;
61385;SDS011;47256;18.904;-99.054;2023-09-19T07:00:14;11.60;;;6.00;;
61385;SDS011;47256;18.904;-99.054;2023-09-19T07:02:44;13.85;;;6.63;;
61385;SDS011;47256;18.904;-99.054;2023-09-19T07:05:12;9.82;;;6.05;;
61385;SDS011;47256;18.904;-99.054;2023-09-19T07:07:39;12.50;;;5.60;;
61385;SDS011;47256;18.904;-99.054;2023-09-19T07:10:10;11.55;;;6.25;;
61385;SDS011;47256;18.904;-99.054;2023-09-19T07:12:38;11.55;;;6.03;;
61385;SDS011;47256;18.904;-99.054;2023-09-19T07:15:07;10.98;;;6.22;;
61385;SDS011;47256;18.904;-99.054;2023-09-19T07:17:34;11.35;;;5.68;;
61385;SDS011;47256;18.904;-99.054;2023-09-19T07:20:02;12.90;;;6.05;;
61385;SDS011;47256;18.904;-99.054;2023-09-19T07:22:36;14.65;;;6.03;;
61385;SDS011;47256;18.904;-99.054;2023-09-19T07:25:05;8.65;;;5.93;;
61385;SDS011;47256;18.904;-99.054;2023-09-19T07:27:32;9.10;;;5.75;;
61385;SDS011;47256;18.904;-99.054;2023-09-19T07:29:59;10.63;;;6.07;;
61385;SDS011;47256;18.904;-99.054;2023-09-19T07:32:26;9.02;;;5.68;;
61385;SDS011;47256;18.904;-99.054;2023-09-19T07:34:53;8.48;;;5.57;;
61385;SDS011;47256;18.904;-99.054;2023-09-19T07:37:21;12.90;;;6.72;;
61385;SDS011;47256;18.904;-99.054;2023-09-19T07:39:48;12.52;;;6.45;;
61385;SDS011;47256;18.904;-99.054;2023-09-19T07:42:16;14.55;;;7.07;;
61385;SDS011;47256;18.904;-99.054;2023-09-19T07:44:44;16.38;;;7.20;;
61385;SDS011;47256;18.904;-99.054;2023-09-19T07:47:44;11.95;;;6.20;;
61385;SDS011;47256;18.904;-99.054;2023-09-19T07:50:15;13.93;;;5.97;;
61385;SDS011;47256;18.904;-99.054;2023-09-19T07:52:47;14.82;;;6.63;;
61385;SDS011;47256;18.904;-99.054;2023-09-19T07:55:19;10.35;;;6.38;;
61385;SDS011;47256;18.904;-99.054;2023-09-19T07:57:50;9.30;;;5.80;;
61385;SDS011;47256;18.904;-99.054;2023-09-19T08:00:20;13.93;;;6.68;;
61385;SDS011;47256;18.904;-99.054;2023-09-19T08:02:47;13.65;;;6.05;;
61385;SDS011;47256;18.904;-99.054;2023-09-19T08:05:16;10.27;;;6.28;;
61385;SDS011;47256;18.904;-99.054;2023-09-19T08:07:44;9.73;;;6.78;;
61385;SDS011;47256;18.904;-99.054;2023-09-19T08:10:15;8.30;;;5.78;;
61385;SDS011;47256;18.904;-99.054;2023-09-19T08:12:44;9.00;;;6.20;;
61385;SDS011;47256;18.904;-99.054;2023-09-19T08:15:13;7.80;;;5.38;;
61385;SDS011;47256;18.904;-99.054;2023-09-19T08:17:48;10.38;;;6.80;;
61385;SDS011;47256;18.904;-99.054;2023-09-19T08:20:15;8.40;;;5.57;;
61385;SDS011;47256;18.904;-99.054;2023-09-19T08:22:43;8.18;;;5.63;;
61385;SDS011;47256;18.904;-99.054;2023-09-19T08:25:14;6.78;;;4.85;;
61385;SDS011;47256;18.904;-99.054;2023-09-19T08:27:44;8.77;;;5.03;;
61385;SDS011;47256;18.904;-99.054;2023-09-19T08:30:14;8.65;;;5.22;;
61385;SDS011;47256;18.904;-99.054;2023-09-19T08:32:42;7.25;;;5.10;;
61385;SDS011;47256;18.904;-99.054;2023-09-19T08:35:10;7.18;;;4.60;;
61385;SDS011;47256;18.904;-99.054;2023-09-19T08:37:37;9.45;;;5.45;;
61385;SDS011;47256;18.904;-99.054;2023-09-19T08:40:04;9.80;;;4.90;;
61385;SDS011;47256;18.904;-99.054;2023-09-19T08:42:51;10.15;;;5.47;;
61385;SDS011;47256;18.904;-99.054;2023-09-19T08:45:21;7.20;;;4.97;;
61385;SDS011;47256;18.904;-99.054;2023-09-19T08:53:41;11.43;;;5.15;;
61385;SDS011;47256;18.904;-99.054;2023-09-19T08:56:18;7.00;;;4.65;;
61385;SDS011;47256;18.904;-99.054;2023-09-19T08:58:50;5.10;;;4.30;;
61385;SDS011;47256;18.904;-99.054;2023-09-19T09:01:22;6.05;;;5.22;;
61385;SDS011;47256;18.904;-99.054;2023-09-19T09:03:55;5.88;;;4.95;;
61385;SDS011;47256;18.904;-99.054;2023-09-19T09:06:23;6.03;;;4.63;;
61385;SDS011;47256;18.904;-99.054;2023-09-19T09:08:55;7.05;;;5.22;;
61385;SDS011;47256;18.904;-99.054;2023-09-19T09:11:22;9.18;;;5.47;;
61385;SDS011;47256;18.904;-99.054;2023-09-19T09:13:50;7.35;;;5.35;;
61385;SDS011;47256;18.904;-99.054;2023-09-19T09:16:17;8.52;;;6.13;;
61385;SDS011;47256;18.904;-99.054;2023-09-19T09:18:45;10.30;;;5.68;;
61385;SDS011;47256;18.904;-99.054;2023-09-19T09:21:18;11.80;;;5.90;;
61385;SDS011;47256;18.904;-99.054;2023-09-19T09:23:48;9.32;;;5.90;;
61385;SDS011;47256;18.904;-99.054;2023-09-19T09:26:37;8.68;;;5.95;;
61385;SDS011;47256;18.904;-99.054;2023-09-19T09:29:06;8.95;;;5.07;;
61385;SDS011;47256;18.904;-99.054;2023-09-19T09:31:34;8.13;;;5.50;;
61385;SDS011;47256;18.904;-99.054;2023-09-19T09:34:03;9.50;;;5.20;;
61385;SDS011;47256;18.904;-99.054;2023-09-19T09:36:37;6.65;;;5.70;;
61385;SDS011;47256;18.904;-99.054;2023-09-19T09:39:07;9.95;;;7.05;;
61385;SDS011;47256;18.904;-99.054;2023-09-19T09:41:45;10.65;;;5.60;;
61385;SDS011;47256;18.904;-99.054;2023-09-19T09:44:12;8.77;;;5.95;;
61385;SDS011;47256;18.904;-99.054;2023-09-19T09:46:48;11.55;;;6.32;;
61385;SDS011;47256;18.904;-99.054;2023-09-19T09:49:24;7.68;;;5.55;;
61385;SDS011;47256;18.904;-99.054;2023-09-19T09:52:05;9.55;;;5.40;;
61385;SDS011;47256;18.904;-99.054;2023-09-19T09:55:02;8.25;;;6.22;;
61385;SDS011;47256;18.904;-99.054;2023-09-19T09:57:31;7.28;;;5.60;;
61385;SDS011;47256;18.904;-99.054;2023-09-19T09:59:59;10.15;;;5.43;;
61385;SDS011;47256;18.904;-99.054;2023-09-19T10:02:39;9.77;;;6.28;;
61385;SDS011;47256;18.904;-99.054;2023-09-19T10:05:17;6.55;;;5.55;;
61385;SDS011;47256;18.904;-99.054;2023-09-19T10:07:51;8.48;;;6.45;;
61385;SDS011;47256;18.904;-99.054;2023-09-19T10:10:30;9.65;;;5.78;;
61385;SDS011;47256;18.904;-99.054;2023-09-19T10:13:20;10.30;;;6.22;;
61385;SDS011;47256;18.904;-99.054;2023-09-19T10:15:49;7.35;;;6.22;;
61385;SDS011;47256;18.904;-99.054;2023-09-19T10:18:26;8.52;;;6.20;;
61385;SDS011;47256;18.904;-99.054;2023-09-19T10:20:56;10.20;;;7.32;;
61385;SDS011;47256;18.904;-99.054;2023-09-19T10:23:23;9.20;;;6.13;;
61385;SDS011;47256;18.904;-99.054;2023-09-19T10:25:55;10.23;;;6.93;;
61385;SDS011;47256;18.904;-99.054;2023-09-19T10:28:25;11.93;;;6.95;;
61385;SDS011;47256;18.904;-99.054;2023-09-19T10:30:56;10.80;;;7.38;;
61385;SDS011;47256;18.904;-99.054;2023-09-19T10:33:26;10.65;;;6.88;;
61385;SDS011;47256;18.904;-99.054;2023-09-19T10:35:56;8.05;;;5.82;;
61385;SDS011;47256;18.904;-99.054;2023-09-19T10:38:26;10.02;;;6.57;;
61385;SDS011;47256;18.904;-99.054;2023-09-19T10:40:55;11.05;;;6.47;;
61385;SDS011;47256;18.904;-99.054;2023-09-19T10:43:28;10.18;;;6.43;;
61385;SDS011;47256;18.904;-99.054;2023-09-19T10:46:01;10.32;;;6.25;;
61385;SDS011;47256;18.904;-99.054;2023-09-19T10:48:32;15.30;;;6.45;;
61385;SDS011;47256;18.904;-99.054;2023-09-19T10:56:27;11.48;;;5.93;;
61385;SDS011;47256;18.904;-99.054;2023-09-19T10:59:11;8.07;;;6.07;;
61385;SDS011;47256;18.904;-99.054;2023-09-19T11:01:46;13.32;;;7.45;;
61385;SDS011;47256;18.904;-99.054;2023-09-19T11:04:33;7.18;;;6.30;;
61385;SDS011;47256;18.904;-99.054;2023-09-19T11:07:07;8.88;;;5.70;;
61385;SDS011;47256;18.904;-99.054;2023-09-19T11:09:53;9.15;;;6.50;;
61385;SDS011;47256;18.904;-99.054;2023-09-19T11:14:58;10.10;;;6.90;;
61385;SDS011;47256;18.904;-99.054;2023-09-19T11:17:30;9.95;;;6.28;;
61385;SDS011;47256;18.904;-99.054;2023-09-19T11:25:43;14.00;;;6.88;;
61385;SDS011;47256;18.904;-99.054;2023-09-19T11:30:51;11.23;;;6.28;;
61385;SDS011;47256;18.904;-99.054;2023-09-19T11:36:11;9.65;;;7.18;;
61385;SDS011;47256;18.904;-99.054;2023-09-19T11:46:52;10.23;;;6.85;;
61385;SDS011;47256;18.904;-99.054;2023-09-19T11:49:29;8.90;;;6.25;;
61385;SDS011;47256;18.904;-99.054;2023-09-19T11:51:59;10.38;;;7.55;;
61385;SDS011;47256;18.904;-99.054;2023-09-19T11:54:27;10.05;;;7.85;;
61385;SDS011;47256;18.904;-99.054;2023-09-19T11:56:59;13.95;;;8.38;;
61385;SDS011;47256;18.904;-99.054;2023-09-19T11:59:27;8.05;;;7.18;;
61385;SDS011;47256;18.904;-99.054;2023-09-19T12:01:58;10.73;;;7.43;;
61385;SDS011;47256;18.904;-99.054;2023-09-19T12:07:08;9.75;;;6.90;;
61385;SDS011;47256;18.904;-99.054;2023-09-19T12:09:45;12.38;;;6.60;;
61385;SDS011;47256;18.904;-99.054;2023-09-19T12:12:20;8.50;;;6.55;;
61385;SDS011;47256;18.904;-99.054;2023-09-19T12:14:53;10.32;;;7.25;;
61385;SDS011;47256;18.904;-99.054;2023-09-19T12:17:37;12.60;;;5.88;;
61385;SDS011;47256;18.904;-99.054;2023-09-19T12:20:08;10.55;;;5.97;;
61385;SDS011;47256;18.904;-99.054;2023-09-19T12:22:43;12.98;;;7.30;;
61385;SDS011;47256;18.904;-99.054;2023-09-19T12:25:12;8.13;;;6.68;;
61385;SDS011;47256;18.904;-99.054;2023-09-19T12:27:42;10.95;;;5.80;;
61385;SDS011;47256;18.904;-99.054;2023-09-19T12:30:13;9.85;;;5.78;;
61385;SDS011;47256;18.904;-99.054;2023-09-19T12:32:43;8.27;;;5.68;;
61385;SDS011;47256;18.904;-99.054;2023-09-19T12:35:10;11.93;;;5.70;;
61385;SDS011;47256;18.904;-99.054;2023-09-19T12:37:54;10.13;;;5.57;;
61385;SDS011;47256;18.904;-99.054;2023-09-19T12:40:22;8.05;;;6.07;;
61385;SDS011;47256;18.904;-99.054;2023-09-19T12:42:54;11.75;;;6.25;;
61385;SDS011;47256;18.904;-99.054;2023-09-19T12:45:21;12.00;;;6.15;;
61385;SDS011;47256;18.904;-99.054;2023-09-19T12:53:43;9.13;;;5.93;;
61385;SDS011;47256;18.904;-99.054;2023-09-19T12:56:15;6.47;;;5.13;;
61385;SDS011;47256;18.904;-99.054;2023-09-19T12:58:53;7.60;;;5.72;;
61385;SDS011;47256;18.904;-99.054;2023-09-19T13:01:29;11.35;;;6.05;;
61385;SDS011;47256;18.904;-99.054;2023-09-19T13:06:41;9.93;;;5.68;;
61385;SDS011;47256;18.904;-99.054;2023-09-19T13:09:10;8.02;;;5.55;;
61385;SDS011;47256;18.904;-99.054;2023-09-19T13:11:38;10.25;;;6.20;;
61385;SDS011;47256;18.904;-99.054;2023-09-19T13:14:39;6.85;;;4.90;;
61385;SDS011;47256;18.904;-99.054;2023-09-19T13:17:07;8.60;;;5.43;;
61385;SDS011;47256;18.904;-99.054;2023-09-19T13:19:46;10.25;;;5.35;;
61385;SDS011;47256;18.904;-99.054;2023-09-19T13:25:20;10.85;;;6.25;;
61385;SDS011;47256;18.904;-99.054;2023-09-19T13:27:49;7.63;;;5.93;;
61385;SDS011;47256;18.904;-99.054;2023-09-19T13:30:20;10.77;;;7.15;;
61385;SDS011;47256;18.904;-99.054;2023-09-19T13:32:49;8.45;;;6.53;;
61385;SDS011;47256;18.904;-99.054;2023-09-19T13:35:16;13.70;;;9.23;;
61385;SDS011;47256;18.904;-99.054;2023-09-19T13:37:43;10.95;;;8.68;;
61385;SDS011;47256;18.904;-99.054;2023-09-19T13:40:13;11.32;;;9.18;;
61385;SDS011;47256;18.904;-99.054;2023-09-19T13:42:41;14.40;;;10.18;;
61385;SDS011;47256;18.904;-99.054;2023-09-19T13:48:02;18.48;;;10.30;;
61385;SDS011;47256;18.904;-99.054;2023-09-19T13:50:30;17.67;;;11.23;;
61385;SDS011;47256;18.904;-99.054;2023-09-19T13:52:57;14.82;;;10.55;;
61385;SDS011;47256;18.904;-99.054;2023-09-19T13:55:26;14.98;;;10.88;;
61385;SDS011;47256;18.904;-99.054;2023-09-19T13:57:53;17.55;;;10.85;;
61385;SDS011;47256;18.904;-99.054;2023-09-19T14:00:22;17.85;;;11.15;;
61385;SDS011;47256;18.904;-99.054;2023-09-19T14:02:50;13.90;;;9.93;;
61385;SDS011;47256;18.904;-99.054;2023-09-19T14:05:18;16.27;;;11.13;;
61385;SDS011;47256;18.904;-99.054;2023-09-19T14:07:46;14.13;;;10.07;;
61385;SDS011;47256;18.904;-99.054;2023-09-19T14:10:14;14.00;;;11.00;;
61385;SDS011;47256;18.904;-99.054;2023-09-19T14:12:44;13.18;;;9.07;;
61385;SDS011;47256;18.904;-99.054;2023-09-19T14:15:11;17.52;;;10.73;;
61385;SDS011;47256;18.904;-99.054;2023-09-19T14:17:39;16.38;;;10.82;;
61385;SDS011;47256;18.904;-99.054;2023-09-19T14:20:13;12.43;;;8.98;;
61385;SDS011;47256;18.904;-99.054;2023-09-19T14:22:41;14.20;;;9.00;;
61385;SDS011;47256;18.904;-99.054;2023-09-19T14:25:08;14.05;;;8.13;;
61385;SDS011;47256;18.904;-99.054;2023-09-19T14:27:35;11.50;;;8.93;;
61385;SDS011;47256;18.904;-99.054;2023-09-19T14:30:02;11.60;;;8.45;;
61385;SDS011;47256;18.904;-99.054;2023-09-19T14:32:30;12.30;;;8.95;;
61385;SDS011;47256;18.904;-99.054;2023-09-19T14:34:57;17.27;;;9.48;;
61385;SDS011;47256;18.904;-99.054;2023-09-19T14:37:24;17.77;;;9.65;;
61385;SDS011;47256;18.904;-99.054;2023-09-19T14:39:54;20.15;;;10.07;;
61385;SDS011;47256;18.904;-99.054;2023-09-19T14:42:21;12.50;;;9.52;;
61385;SDS011;47256;18.904;-99.054;2023-09-19T14:44:48;12.00;;;8.05;;
61385;SDS011;47256;18.904;-99.054;2023-09-19T14:47:15;11.40;;;7.25;;
61385;SDS011;47256;18.904;-99.054;2023-09-19T14:49:43;14.18;;;8.60;;
61385;SDS011;47256;18.904;-99.054;2023-09-19T14:52:11;16.33;;;8.82;;
61385;SDS011;47256;18.904;-99.054;2023-09-19T14:54:42;10.77;;;7.75;;
61385;SDS011;47256;18.904;-99.054;2023-09-19T14:57:09;17.55;;;6.93;;
61385;SDS011;47256;18.904;-99.054;2023-09-19T14:59:39;11.77;;;7.18;;
61385;SDS011;47256;18.904;-99.054;2023-09-19T15:02:06;9.95;;;6.20;;
61385;SDS011;47256;18.904;-99.054;2023-09-19T15:04:34;9.90;;;7.18;;
61385;SDS011;47256;18.904;-99.054;2023-09-19T15:07:01;10.98;;;7.20;;
61385;SDS011;47256;18.904;-99.054;2023-09-19T15:09:29;13.93;;;7.93;;
61385;SDS011;47256;18.904;-99.054;2023-09-19T15:11:59;11.02;;;7.93;;
61385;SDS011;47256;18.904;-99.054;2023-09-19T15:14:26;13.15;;;7.82;;
61385;SDS011;47256;18.904;-99.054;2023-09-19T15:16:53;19.17;;;8.45;;
61385;SDS011;47256;18.904;-99.054;2023-09-19T15:19:19;12.27;;;8.65;;
61385;SDS011;47256;18.904;-99.054;2023-09-19T15:21:48;18.20;;;9.32;;
61385;SDS011;47256;18.904;-99.054;2023-09-19T15:24:15;21.42;;;9.65;;
61385;SDS011;47256;18.904;-99.054;2023-09-19T15:26:42;13.38;;;9.07;;
61385;SDS011;47256;18.904;-99.054;2023-09-19T15:29:10;12.13;;;7.95;;
61385;SDS011;47256;18.904;-99.054;2023-09-19T15:31:38;16.83;;;8.02;;
61385;SDS011;47256;18.904;-99.054;2023-09-19T15:34:05;12.30;;;8.27;;
61385;SDS011;47256;18.904;-99.054;2023-09-19T15:36:33;12.35;;;8.77;;
61385;SDS011;47256;18.904;-99.054;2023-09-19T15:39:04;11.20;;;8.27;;
61385;SDS011;47256;18.904;-99.054;2023-09-19T15:41:34;12.80;;;8.65;;